createdAt,value
2019-05-07T00:01:02.958Z,12.50
2019-05-07T00:03:32.808Z,12.60
2019-05-07T00:06:02.815Z,11.97
2019-05-07T00:08:32.283Z,12.73
2019-05-07T00:11:02.317Z,12.50
2019-05-07T00:13:33.130Z,13.00
2019-05-07T00:16:02.505Z,12.27
2019-05-07T00:18:32.194Z,12.63
2019-05-07T00:21:03.378Z,12.53
2019-05-07T00:23:32.503Z,12.63
2019-05-07T00:26:02.509Z,12.80
2019-05-07T00:28:32.460Z,12.67
2019-05-07T00:31:02.915Z,12.43
2019-05-07T00:33:32.474Z,13.10
2019-05-07T00:36:02.963Z,12.87
2019-05-07T00:38:33.391Z,12.00
2019-05-07T00:41:06.530Z,12.67
2019-05-07T00:43:36.485Z,12.80
2019-05-07T00:46:09.593Z,12.77
2019-05-07T00:48:38.411Z,13.47
2019-05-07T00:51:24.211Z,12.30
2019-05-07T00:53:53.365Z,12.80
2019-05-07T00:56:22.469Z,13.43
2019-05-07T00:58:52.713Z,12.30
2019-05-07T01:01:22.697Z,12.97
2019-05-07T01:03:53.380Z,12.53
2019-05-07T01:06:25.988Z,12.00
2019-05-07T01:08:53.055Z,12.00
2019-05-07T01:11:22.665Z,12.20
2019-05-07T01:13:52.137Z,12.87
2019-05-07T01:16:22.195Z,12.63
2019-05-07T01:18:53.583Z,12.27
2019-05-07T01:21:22.741Z,13.63
2019-05-07T01:23:52.290Z,12.70
2019-05-07T01:26:21.892Z,13.93
2019-05-07T01:29:02.996Z,12.70
2019-05-07T01:31:34.150Z,12.33
2019-05-07T01:34:13.579Z,12.90
2019-05-07T01:36:42.774Z,13.03
2019-05-07T01:39:13.072Z,12.53
2019-05-07T01:41:42.072Z,13.00
2019-05-07T01:44:12.838Z,13.03
2019-05-07T01:46:42.269Z,12.77
2019-05-07T01:49:12.516Z,12.83
2019-05-07T01:51:43.642Z,13.03
2019-05-07T01:54:12.996Z,13.27
2019-05-07T01:56:42.830Z,12.87
2019-05-07T01:59:12.136Z,13.27
2019-05-07T02:01:42.931Z,12.37
2019-05-07T02:04:13.549Z,12.33
2019-05-07T02:07:02.632Z,12.70
2019-05-07T02:09:45.625Z,12.37
2019-05-07T02:12:15.979Z,13.00
2019-05-07T02:14:44.881Z,12.40
2019-05-07T02:17:13.811Z,13.20
2019-05-07T02:19:42.636Z,13.80
2019-05-07T02:22:14.388Z,13.10
2019-05-07T02:24:43.495Z,13.80
2019-05-07T02:27:12.756Z,12.47
2019-05-07T02:29:43.288Z,12.87
2019-05-07T02:32:13.374Z,12.93
2019-05-07T02:34:44.247Z,12.87
2019-05-07T02:40:49.625Z,12.53
2019-05-07T02:43:18.634Z,12.20
2019-05-07T02:45:49.249Z,12.47
2019-05-07T02:48:23.703Z,13.37
2019-05-07T02:51:08.525Z,11.70
2019-05-07T02:53:53.622Z,13.33
2019-05-07T02:56:36.743Z,13.17
2019-05-07T02:59:14.795Z,13.60
2019-05-07T03:02:07.216Z,12.57
2019-05-07T03:04:53.172Z,12.43
2019-05-07T03:13:24.539Z,13.00
2019-05-07T03:16:13.448Z,12.73
2019-05-07T03:18:53.151Z,12.40
2019-05-07T03:21:19.346Z,13.07
2019-05-07T03:24:09.453Z,12.57
2019-05-07T03:29:28.655Z,11.53
2019-05-07T03:32:40.707Z,14.43
2019-05-07T03:37:58.223Z,13.00
2019-05-07T03:56:52.804Z,12.27
2019-05-07T03:59:23.084Z,13.23
2019-05-07T04:33:03.461Z,13.17
2019-05-07T04:41:24.902Z,13.13
2019-05-07T04:43:54.309Z,12.90
2019-05-07T04:46:24.439Z,13.80
2019-05-07T04:48:55.016Z,13.63
2019-05-07T04:51:28.235Z,12.40
2019-05-07T04:54:03.269Z,12.37
2019-05-07T04:56:33.469Z,12.87
2019-05-07T04:59:03.653Z,12.20
2019-05-07T05:01:37.308Z,13.37
2019-05-07T05:04:24.385Z,13.63
2019-05-07T05:06:38.361Z,12.90
2019-05-07T05:30:12.472Z,12.87
2019-05-07T05:32:45.296Z,13.77
2019-05-07T05:35:12.617Z,13.43
2019-05-07T05:37:42.885Z,13.77
2019-05-07T05:40:12.690Z,13.37
2019-05-07T05:42:53.120Z,12.93
2019-05-07T05:45:39.507Z,12.53
2019-05-07T05:48:08.755Z,12.63
2019-05-07T05:50:42.160Z,13.93
2019-05-07T05:53:29.568Z,12.50
2019-05-07T05:55:59.791Z,12.87
2019-05-07T05:58:35.923Z,13.80
2019-05-07T06:01:06.757Z,13.93
2019-05-07T06:03:37.198Z,13.97
2019-05-07T06:06:12.664Z,12.87
2019-05-07T06:08:59.222Z,12.53
2019-05-07T06:11:29.650Z,13.60
2019-05-07T06:14:08.580Z,12.57
2019-05-07T06:16:38.965Z,12.80
2019-05-07T06:19:12.837Z,13.53
2019-05-07T06:21:53.285Z,13.67
2019-05-07T06:24:33.725Z,12.77
2019-05-07T06:27:04.833Z,13.60
2019-05-07T06:29:33.953Z,13.50
2019-05-07T06:32:04.676Z,13.73
2019-05-07T06:37:16.674Z,14.37
2019-05-07T06:39:53.065Z,14.40
2019-05-07T06:42:29.037Z,13.33
2019-05-07T06:45:02.947Z,13.23
2019-05-07T06:47:31.950Z,13.53
2019-05-07T06:50:03.007Z,13.33
2019-05-07T06:52:31.998Z,12.53
2019-05-07T06:55:03.211Z,12.83
2019-05-07T06:57:33.049Z,11.77
2019-05-07T07:00:03.683Z,12.67
2019-05-07T07:02:34.119Z,12.73
2019-05-07T07:05:04.474Z,12.90
2019-05-07T07:07:38.549Z,11.77
2019-05-07T07:10:24.503Z,12.33
2019-05-07T07:12:53.497Z,13.27
2019-05-07T07:15:23.281Z,12.77
2019-05-07T07:17:52.465Z,12.40
2019-05-07T07:20:32.729Z,11.63
2019-05-07T07:23:11.703Z,11.13
2019-05-07T07:25:54.173Z,12.43
2019-05-07T07:28:42.786Z,11.60
2019-05-07T07:43:06.971Z,9.67
2019-05-07T07:45:54.427Z,9.93
2019-05-07T07:51:34.935Z,8.37
2019-05-07T07:53:55.353Z,9.63
2019-05-07T08:02:42.295Z,7.60
2019-05-07T08:05:12.685Z,7.00
2019-05-07T08:16:42.996Z,5.87
2019-05-07T08:22:19.114Z,6.00
2019-05-07T08:24:56.533Z,6.37
2019-05-07T08:36:29.661Z,5.43
2019-05-07T08:48:32.576Z,5.40
2019-05-07T08:51:04.039Z,5.80
2019-05-07T08:53:35.622Z,5.60
2019-05-07T08:56:04.259Z,5.10
2019-05-07T08:58:33.624Z,5.17
2019-05-07T09:04:13.698Z,4.30
2019-05-07T09:17:37.142Z,4.40
2019-05-07T09:23:31.931Z,4.70
2019-05-07T09:26:02.755Z,4.17
2019-05-07T09:28:35.992Z,4.63
2019-05-07T09:31:13.938Z,4.50
2019-05-07T09:33:47.378Z,3.43
2019-05-07T09:36:22.723Z,4.87
2019-05-07T09:38:56.760Z,4.20
2019-05-07T09:41:27.742Z,3.97
2019-05-07T09:43:57.798Z,4.07
2019-05-07T09:46:28.606Z,4.07
2019-05-07T09:48:57.464Z,4.13
2019-05-07T09:51:26.208Z,3.83
2019-05-07T09:53:56.338Z,3.90
2019-05-07T09:56:38.160Z,4.33
2019-05-07T09:59:06.844Z,4.43
2019-05-07T10:01:35.610Z,4.80
2019-05-07T10:04:04.336Z,5.03
2019-05-07T10:06:33.011Z,4.10
2019-05-07T10:09:02.858Z,4.10
2019-05-07T10:11:39.236Z,4.30
2019-05-07T10:14:12.192Z,4.00
2019-05-07T10:16:44.632Z,3.90
2019-05-07T10:19:13.466Z,4.50
2019-05-07T10:21:42.570Z,4.80
2019-05-07T10:24:12.954Z,4.03
2019-05-07T10:26:42.874Z,3.87
2019-05-07T10:29:12.617Z,3.80
2019-05-07T10:31:42.425Z,4.33
2019-05-07T10:34:12.341Z,4.30
2019-05-07T10:36:42.145Z,4.30
2019-05-07T10:39:12.736Z,4.57
2019-05-07T10:41:42.466Z,4.13
2019-05-07T10:47:01.855Z,4.10
2019-05-07T10:49:31.824Z,4.00
2019-05-07T10:52:02.148Z,4.87
2019-05-07T10:54:30.890Z,4.70
2019-05-07T10:56:59.455Z,4.50
2019-05-07T10:59:28.072Z,4.93
2019-05-07T11:01:58.321Z,4.20
2019-05-07T11:04:39.294Z,4.63
2019-05-07T11:06:57.369Z,5.60
2019-05-07T11:09:26.040Z,4.77
2019-05-07T11:11:54.574Z,4.47
2019-05-07T11:14:23.275Z,5.20
2019-05-07T11:17:09.287Z,5.60
2019-05-07T11:19:37.906Z,5.57
2019-05-07T11:22:06.524Z,5.90
2019-05-07T11:24:35.217Z,6.03
2019-05-07T11:27:04.144Z,6.00
2019-05-07T11:29:33.854Z,6.17
2019-05-07T11:32:03.102Z,6.20
2019-05-07T11:34:33.485Z,6.50
2019-05-07T11:37:02.445Z,6.10
2019-05-07T11:39:33.098Z,5.97
2019-05-07T11:42:21.977Z,5.97
2019-05-07T11:44:54.806Z,6.67
2019-05-07T11:47:26.895Z,6.90
2019-05-07T11:50:14.771Z,7.77
2019-05-07T11:53:00.509Z,6.40
2019-05-07T11:55:29.201Z,7.13
2019-05-07T11:57:57.787Z,6.50
2019-05-07T12:00:37.465Z,6.80
2019-05-07T12:03:06.059Z,6.97
2019-05-07T12:05:34.747Z,6.40
2019-05-07T12:08:03.561Z,6.63
2019-05-07T12:10:32.785Z,6.30
2019-05-07T12:13:02.343Z,6.60
2019-05-07T12:15:32.428Z,6.20
2019-05-07T12:18:03.060Z,5.87
2019-05-07T12:20:32.457Z,6.50
2019-05-07T12:23:02.850Z,6.43
2019-05-07T12:25:32.182Z,7.13
2019-05-07T12:28:02.435Z,7.07
2019-05-07T12:30:33.167Z,6.20
2019-05-07T12:33:19.709Z,6.13
2019-05-07T12:35:48.379Z,6.37
2019-05-07T12:38:16.949Z,6.80
2019-05-07T12:40:45.659Z,7.87
2019-05-07T12:43:14.429Z,7.53
2019-05-07T12:45:43.057Z,7.83
2019-05-07T12:48:14.182Z,6.63
2019-05-07T12:50:43.181Z,7.57
2019-05-07T12:53:22.482Z,7.20
2019-05-07T12:56:02.198Z,7.10
2019-05-07T12:58:32.283Z,6.23
2019-05-07T13:01:02.608Z,7.00
2019-05-07T13:03:38.936Z,6.50
2019-05-07T13:06:07.668Z,7.47
2019-05-07T13:08:36.151Z,7.37
2019-05-07T13:11:04.940Z,6.57
2019-05-07T13:13:33.481Z,6.60
2019-05-07T13:16:02.900Z,7.50
2019-05-07T13:18:32.127Z,7.50
2019-05-07T13:21:02.426Z,7.87
2019-05-07T13:23:31.838Z,6.73
2019-05-07T13:26:02.564Z,7.93
2019-05-07T13:28:30.919Z,7.10
2019-05-07T13:30:59.549Z,8.37
2019-05-07T13:33:29.306Z,8.20
2019-05-07T13:35:57.999Z,8.50
2019-05-07T13:38:37.385Z,7.73
2019-05-07T13:41:16.601Z,7.73
2019-05-07T13:44:02.890Z,7.50
2019-05-07T13:46:33.408Z,7.67
2019-05-07T13:49:02.346Z,7.20
2019-05-07T13:51:33.629Z,7.10
2019-05-07T13:54:02.223Z,7.97
2019-05-07T13:56:32.656Z,7.67
2019-05-07T13:59:04.646Z,7.83
2019-05-07T14:01:33.430Z,8.00
2019-05-07T14:04:04.075Z,7.17
2019-05-07T14:06:38.575Z,7.00
2019-05-07T14:09:11.236Z,7.93
2019-05-07T14:11:41.957Z,6.97
2019-05-07T14:14:12.151Z,6.90
2019-05-07T14:16:42.454Z,7.00
2019-05-07T14:19:12.795Z,6.47
2019-05-07T14:21:42.186Z,6.67
2019-05-07T14:24:14.568Z,6.27
2019-05-07T14:26:42.353Z,6.93
2019-05-07T14:29:11.325Z,7.50
2019-05-07T14:31:39.851Z,6.57
2019-05-07T14:34:12.397Z,6.30
2019-05-07T14:36:47.848Z,6.57
2019-05-07T14:39:16.479Z,7.13
2019-05-07T14:41:45.969Z,7.23
2019-05-07T14:44:16.337Z,6.33
2019-05-07T14:46:50.834Z,6.20
2019-05-07T14:49:15.557Z,5.80
2019-05-07T14:51:44.227Z,5.60
2019-05-07T14:54:12.919Z,5.70
2019-05-07T14:56:42.829Z,5.47
2019-05-07T14:59:12.824Z,7.13
2019-05-07T15:01:42.977Z,7.43
2019-05-07T15:04:12.871Z,6.60
2019-05-07T15:06:41.778Z,6.73
2019-05-07T15:09:12.085Z,6.37
2019-05-07T15:11:42.478Z,6.37
2019-05-07T15:14:12.035Z,6.70
2019-05-07T15:16:42.653Z,6.00
2019-05-07T15:19:12.538Z,6.70
2019-05-07T15:21:42.581Z,6.57
2019-05-07T15:24:14.489Z,6.23
2019-05-07T15:26:43.283Z,5.43
2019-05-07T15:29:13.321Z,5.60
2019-05-07T15:31:55.345Z,5.83
2019-05-07T15:34:24.341Z,6.13
2019-05-07T15:36:53.179Z,5.67
2019-05-07T15:39:22.257Z,6.03
2019-05-07T15:41:51.787Z,5.87
2019-05-07T15:44:20.552Z,6.40
2019-05-07T15:46:49.179Z,6.07
2019-05-07T15:49:18.823Z,5.93
2019-05-07T15:51:49.202Z,5.60
2019-05-07T15:54:21.839Z,5.90
2019-05-07T15:56:52.311Z,5.90
2019-05-07T15:59:28.208Z,5.27
2019-05-07T16:02:02.904Z,5.30
2019-05-07T16:04:32.921Z,5.53
2019-05-07T16:07:05.109Z,6.00
2019-05-07T16:09:44.720Z,5.07
2019-05-07T16:12:14.989Z,5.63
2019-05-07T16:14:44.048Z,5.40
2019-05-07T16:17:16.442Z,5.37
2019-05-07T16:19:44.751Z,5.30
2019-05-07T16:22:15.000Z,5.60
2019-05-07T16:24:43.635Z,5.30
2019-05-07T16:27:12.312Z,5.70
2019-05-07T16:29:42.129Z,5.70
2019-05-07T16:32:10.899Z,6.03
2019-05-07T16:34:39.851Z,6.45
2019-05-07T16:37:09.069Z,5.83
2019-05-07T16:39:37.783Z,5.47
2019-05-07T16:42:06.375Z,5.20
2019-05-07T16:44:36.658Z,5.60
2019-05-07T16:47:05.368Z,5.27
2019-05-07T16:49:33.965Z,5.47
2019-05-07T16:52:02.505Z,5.40
2019-05-07T16:54:31.351Z,5.63
2019-05-07T16:57:17.817Z,5.60
2019-05-07T16:59:46.793Z,6.47
2019-05-07T17:02:17.167Z,7.00
2019-05-07T17:04:56.815Z,6.63
2019-05-07T17:07:25.687Z,5.00
2019-05-07T17:09:54.618Z,5.17
2019-05-07T17:12:23.385Z,5.30
2019-05-07T17:14:52.057Z,5.13
2019-05-07T17:17:22.427Z,5.30
2019-05-07T17:19:53.858Z,5.37
2019-05-07T17:22:22.729Z,5.33
2019-05-07T17:24:56.620Z,5.13
2019-05-07T17:27:25.577Z,5.10
2019-05-07T17:29:58.735Z,5.27
2019-05-07T17:32:27.517Z,4.47
2019-05-07T17:34:56.131Z,5.27
2019-05-07T17:37:25.084Z,5.77
2019-05-07T17:39:53.885Z,5.53
2019-05-07T17:42:23.441Z,6.10
2019-05-07T17:44:52.306Z,6.00
2019-05-07T17:47:21.824Z,5.67
2019-05-07T17:49:52.659Z,5.93
2019-05-07T17:52:22.718Z,6.03
2019-05-07T17:54:52.772Z,6.43
2019-05-07T17:57:23.319Z,5.87
2019-05-07T17:59:52.616Z,5.83
2019-05-07T18:02:42.157Z,7.17
2019-05-07T18:05:11.882Z,7.70
2019-05-07T18:07:42.052Z,8.67
2019-05-07T18:10:12.567Z,9.00
2019-05-07T18:12:42.555Z,7.10
2019-05-07T18:15:12.636Z,6.53
2019-05-07T18:17:42.978Z,7.17
2019-05-07T18:20:12.884Z,7.47
2019-05-07T18:22:41.660Z,7.00
2019-05-07T18:25:12.424Z,6.87
2019-05-07T18:27:42.067Z,7.10
2019-05-07T18:30:14.815Z,7.17
2019-05-07T18:32:45.129Z,7.57
2019-05-07T18:35:14.061Z,8.50
2019-05-07T18:37:46.911Z,7.73
2019-05-07T18:40:15.597Z,7.33
2019-05-07T18:42:44.462Z,7.30
2019-05-07T18:45:13.480Z,7.60
2019-05-07T18:47:44.952Z,9.43
2019-05-07T18:50:15.451Z,9.10
2019-05-07T18:52:44.202Z,9.17
2019-05-07T18:55:13.002Z,8.07
2019-05-07T18:57:42.237Z,8.50
2019-05-07T19:00:17.187Z,7.90
2019-05-07T19:02:45.897Z,10.73
2019-05-07T19:05:14.653Z,8.63
2019-05-07T19:07:43.328Z,12.20
2019-05-07T19:10:12.763Z,9.17
2019-05-07T19:12:42.063Z,8.60
2019-05-07T19:15:12.447Z,8.13
2019-05-07T19:17:42.728Z,8.43
2019-05-07T19:20:12.269Z,8.17
2019-05-07T19:22:42.417Z,8.30
2019-05-07T19:25:11.974Z,8.03
2019-05-07T19:27:40.812Z,7.80
2019-05-07T19:30:12.560Z,8.07
2019-05-07T19:32:42.739Z,7.90
2019-05-07T19:35:12.349Z,8.43
2019-05-07T19:37:42.552Z,8.90
2019-05-07T19:40:12.502Z,8.63
2019-05-07T19:42:42.797Z,9.10
2019-05-07T19:45:12.796Z,9.37
2019-05-07T19:47:42.789Z,9.33
2019-05-07T19:50:12.568Z,10.63
2019-05-07T19:52:42.626Z,10.20
2019-05-07T19:55:11.472Z,10.57
2019-05-07T19:57:42.642Z,10.40
2019-05-07T20:00:12.203Z,11.03
2019-05-07T20:02:43.115Z,11.33
2019-05-07T20:05:12.206Z,10.60
2019-05-07T20:07:42.321Z,11.43
2019-05-07T20:10:12.933Z,10.40
2019-05-07T20:12:42.850Z,10.10
2019-05-07T20:15:12.191Z,9.40
2019-05-07T20:17:41.961Z,9.13
2019-05-07T20:20:12.546Z,9.90
2019-05-07T20:22:41.056Z,9.83
2019-05-07T20:25:18.106Z,9.80
2019-05-07T20:27:41.853Z,9.00
2019-05-07T20:30:12.152Z,9.67
2019-05-07T20:32:42.819Z,9.23
2019-05-07T20:35:11.678Z,9.77
2019-05-07T20:37:41.945Z,8.80
2019-05-07T20:40:15.757Z,8.80
2019-05-07T20:42:44.426Z,8.83
2019-05-07T20:45:13.282Z,9.03
2019-05-07T20:47:42.232Z,9.77
2019-05-07T20:50:12.769Z,9.70
2019-05-07T20:52:41.890Z,9.37
2019-05-07T20:55:30.844Z,9.90
2019-05-07T20:58:03.191Z,9.27
2019-05-07T21:00:32.562Z,9.17
2019-05-07T21:03:19.391Z,8.93
2019-05-07T21:05:52.837Z,10.00
2019-05-07T21:08:22.805Z,8.93
2019-05-07T21:10:53.540Z,9.80
2019-05-07T21:13:32.398Z,9.67
2019-05-07T21:15:52.889Z,9.30
2019-05-07T21:18:23.210Z,9.40
2019-05-07T21:20:52.894Z,9.83
2019-05-07T21:23:23.061Z,10.03
2019-05-07T21:25:52.766Z,9.40
2019-05-07T21:28:21.864Z,9.07
2019-05-07T21:30:52.151Z,9.97
2019-05-07T21:33:22.889Z,9.57
2019-05-07T21:35:52.317Z,9.27
2019-05-07T21:38:22.342Z,9.23
2019-05-07T21:40:51.323Z,9.87
2019-05-07T21:43:22.281Z,9.10
2019-05-07T21:45:50.222Z,10.30
2019-05-07T21:48:18.981Z,9.93
2019-05-07T21:50:47.724Z,9.13
2019-05-07T21:53:35.924Z,9.30
2019-05-07T21:56:22.793Z,9.00
2019-05-07T21:58:54.125Z,9.67
2019-05-07T22:01:43.580Z,8.80
2019-05-07T22:04:13.273Z,8.80
2019-05-07T22:06:42.910Z,8.13
2019-05-07T22:09:13.359Z,8.67
2019-05-07T22:11:43.663Z,9.37
2019-05-07T22:14:13.062Z,8.57
2019-05-07T22:16:42.382Z,8.40
2019-05-07T22:19:12.178Z,8.70
2019-05-07T22:21:43.276Z,8.83
2019-05-07T22:24:12.992Z,8.93
2019-05-07T22:26:42.127Z,9.07
2019-05-07T22:29:12.561Z,10.17
2019-05-07T22:31:49.079Z,9.60
2019-05-07T22:34:19.493Z,10.47
2019-05-07T22:36:48.245Z,10.13
2019-05-07T22:39:16.930Z,9.53
2019-05-07T22:41:45.740Z,10.70
2019-05-07T22:44:14.382Z,9.53
2019-05-07T22:46:43.055Z,9.40
2019-05-07T22:49:14.201Z,10.80
2019-05-07T22:51:43.057Z,10.30
2019-05-07T22:54:12.351Z,10.23
2019-05-07T22:56:57.987Z,11.13
2019-05-07T22:59:26.805Z,10.33
2019-05-07T23:01:55.848Z,10.90
2019-05-07T23:04:24.615Z,9.90
2019-05-07T23:06:54.379Z,10.30
2019-05-07T23:09:23.155Z,10.27
2019-05-07T23:11:52.722Z,10.70
2019-05-07T23:14:22.823Z,10.80
2019-05-07T23:16:52.594Z,11.27
2019-05-07T23:19:22.202Z,11.20
2019-05-07T23:21:52.108Z,10.47
2019-05-07T23:24:22.721Z,10.30
2019-05-07T23:26:53.659Z,10.10
2019-05-07T23:29:22.595Z,9.77
2019-05-07T23:31:52.977Z,9.87
2019-05-07T23:34:22.172Z,9.97
2019-05-07T23:36:53.306Z,10.97
2019-05-07T23:39:23.156Z,11.30
2019-05-07T23:42:02.513Z,9.90
2019-05-07T23:44:31.121Z,10.30
2019-05-07T23:46:59.869Z,10.60
2019-05-07T23:49:28.782Z,10.77
2019-05-07T23:51:57.489Z,10.17
2019-05-07T23:54:26.276Z,11.00
2019-05-07T23:57:05.971Z,9.73
2019-05-07T23:59:25.244Z,10.20
